チューク諸島 の空港の天気 - METARとTAF

チューク国際空港 ( PTKK / TKK ) - ミクロネシア連邦 チューク諸島
飛行場実況気象(Metar)
観測時間07/16 15:50 +10 (07/16 05:50 UTC)
風向・風速北 3m/s
視程10km以上
天気現象
全天の4割程度の雲 雲底高度 370m
全天の8割程度の雲 雲底高度 3660m
全天を覆う雲 雲底高度 8530m
気温28.1℃
湿度85%
気圧1006.6hPa
METARPTKK 160550Z VRB05KT 15SM SCT012CB BKN120 OVC280 28/25 A2972 RMK RAE20 CB ALQDS SLP066 60005 8/328 T02810254 10281 20261 57024
過去の天気等 Google飛行場航空写真 Wunderground天気予報

過去48時間のMETAR

飛行場予報(TAF)
発表時間: 7/16 15:55 +10 (7/16 05:55 UTC)
予報対象時間: 16日16時 +10 ~ 17日16時 +10
風向・風速南東 6m/s
視程10km以上
天気現象弱い雨
全天の4割程度の雲 雲底高度 430m
全天の4割程度の雲 雲底高度 1520m
全天の8割程度の雲 雲底高度 3050m
16日16時 +10 ~ 16日20時 +10 に一時的に
視程6440m
天気現象しゅう雨
全天の8割程度の雲 雲底高度 370m
全天を覆う雲 雲底高度 910m
16日22時 +10 から
風向・風速南東 6m/s
視程10km以上
天気現象周辺でしゅう雨
全天の4割程度の雲 雲底高度 430m
全天の8割程度の雲 雲底高度 3660m
PTKK 160555Z 1606/1706 13011KT P6SM -RA SCT014 SCT050 BKN100
TEMPO 1606/1610 4SM SHRA BKN012 OVC030
FM161200 13011KT P6SM VCSH SCT014 BKN120